Terminal Aerodrome Forecast
Issued by NWS

Home | Current Version | Previous Version | Text Only | Print | Product List | Glossary On
Versions: 1 2 3 4 5 6 7 8 9 10 11 12 13 14 15 16 17 18 19
000
FTUS43 KSGF 251700
TAFJLN
TAF
KJLN 251737Z 2518/2618 18023G37KT P6SM FEW250
     FM252100 18020G30KT P6SM SCT250
     FM260000 18017G25KT P6SM SCT250 WS020/21045KT
     FM261500 18014KT P6SM OVC015=

USA.gov is the U.S. government's official web portal to all federal, state and local government web resources and services.